sensor_id;sensor_type;location;lat;lon;timestamp;temperature;humidity
29775;DHT22;16676;51.202;6.774;2023-07-31T00:00:33;20.70;88.80
29775;DHT22;16676;51.202;6.774;2023-07-31T00:04:35;20.70;89.20
29775;DHT22;16676;51.202;6.774;2023-07-31T00:08:38;20.70;88.40
29775;DHT22;16676;51.202;6.774;2023-07-31T00:12:42;20.70;88.50
29775;DHT22;16676;51.202;6.774;2023-07-31T00:16:44;20.70;87.90
29775;DHT22;16676;51.202;6.774;2023-07-31T00:20:46;20.80;88.00
29775;DHT22;16676;51.202;6.774;2023-07-31T00:24:49;20.80;87.00
29775;DHT22;16676;51.202;6.774;2023-07-31T00:28:51;20.80;87.10
29775;DHT22;16676;51.202;6.774;2023-07-31T00:32:53;20.80;87.70
29775;DHT22;16676;51.202;6.774;2023-07-31T00:36:55;20.80;87.40
29775;DHT22;16676;51.202;6.774;2023-07-31T00:40:58;20.70;87.20
29775;DHT22;16676;51.202;6.774;2023-07-31T00:45:00;20.70;87.70
29775;DHT22;16676;51.202;6.774;2023-07-31T00:49:02;20.70;87.20
29775;DHT22;16676;51.202;6.774;2023-07-31T00:53:04;20.70;87.40
29775;DHT22;16676;51.202;6.774;2023-07-31T00:57:08;20.70;87.10
29775;DHT22;16676;51.202;6.774;2023-07-31T01:01:10;20.70;87.50
29775;DHT22;16676;51.202;6.774;2023-07-31T01:05:11;20.70;86.70
29775;DHT22;16676;51.202;6.774;2023-07-31T01:09:22;20.70;86.40
29775;DHT22;16676;51.202;6.774;2023-07-31T01:13:28;20.70;86.60
29775;DHT22;16676;51.202;6.774;2023-07-31T01:17:30;20.70;86.10
29775;DHT22;16676;51.202;6.774;2023-07-31T01:21:56;20.80;85.90
29775;DHT22;16676;51.202;6.774;2023-07-31T01:26:05;20.70;86.00
29775;DHT22;16676;51.202;6.774;2023-07-31T01:30:15;20.70;86.00
29775;DHT22;16676;51.202;6.774;2023-07-31T01:34:19;20.70;85.90
29775;DHT22;16676;51.202;6.774;2023-07-31T01:38:22;20.70;85.80
29775;DHT22;16676;51.202;6.774;2023-07-31T01:42:25;20.70;85.50
29775;DHT22;16676;51.202;6.774;2023-07-31T01:46:27;20.70;85.10
29775;DHT22;16676;51.202;6.774;2023-07-31T01:50:29;20.70;85.00
29775;DHT22;16676;51.202;6.774;2023-07-31T01:54:31;20.70;84.80
29775;DHT22;16676;51.202;6.774;2023-07-31T01:58:35;20.70;84.00
29775;DHT22;16676;51.202;6.774;2023-07-31T02:02:37;20.70;83.70
29775;DHT22;16676;51.202;6.774;2023-07-31T02:06:39;20.70;83.40
29775;DHT22;16676;51.202;6.774;2023-07-31T02:10:41;20.70;83.80
29775;DHT22;16676;51.202;6.774;2023-07-31T02:14:44;20.70;83.90
29775;DHT22;16676;51.202;6.774;2023-07-31T02:18:46;20.60;84.00
29775;DHT22;16676;51.202;6.774;2023-07-31T02:22:48;20.70;83.60
29775;DHT22;16676;51.202;6.774;2023-07-31T02:26:50;20.70;84.70
29775;DHT22;16676;51.202;6.774;2023-07-31T02:30:53;20.70;84.20
29775;DHT22;16676;51.202;6.774;2023-07-31T02:34:55;20.70;83.80
29775;DHT22;16676;51.202;6.774;2023-07-31T02:38:57;20.70;84.10
29775;DHT22;16676;51.202;6.774;2023-07-31T02:42:59;20.60;84.40
29775;DHT22;16676;51.202;6.774;2023-07-31T02:47:03;20.70;84.60
29775;DHT22;16676;51.202;6.774;2023-07-31T02:51:05;20.70;84.20
29775;DHT22;16676;51.202;6.774;2023-07-31T02:55:07;20.60;84.60
29775;DHT22;16676;51.202;6.774;2023-07-31T02:59:09;20.60;85.30
29775;DHT22;16676;51.202;6.774;2023-07-31T03:03:12;20.60;85.50
29775;DHT22;16676;51.202;6.774;2023-07-31T03:07:14;20.60;85.00
29775;DHT22;16676;51.202;6.774;2023-07-31T03:11:16;20.60;86.00
29775;DHT22;16676;51.202;6.774;2023-07-31T03:15:18;20.60;85.50
29775;DHT22;16676;51.202;6.774;2023-07-31T03:19:21;20.60;85.80
29775;DHT22;16676;51.202;6.774;2023-07-31T03:23:23;20.60;85.50
29775;DHT22;16676;51.202;6.774;2023-07-31T03:27:27;20.70;85.10
29775;DHT22;16676;51.202;6.774;2023-07-31T03:31:29;20.60;85.80
29775;DHT22;16676;51.202;6.774;2023-07-31T03:35:32;20.70;85.10
29775;DHT22;16676;51.202;6.774;2023-07-31T03:39:34;20.70;85.80
29775;DHT22;16676;51.202;6.774;2023-07-31T03:43:36;20.70;85.60
29775;DHT22;16676;51.202;6.774;2023-07-31T03:47:38;20.70;85.40
29775;DHT22;16676;51.202;6.774;2023-07-31T03:51:41;20.70;85.40
29775;DHT22;16676;51.202;6.774;2023-07-31T03:55:43;20.70;86.10
29775;DHT22;16676;51.202;6.774;2023-07-31T03:59:45;20.70;85.40
29775;DHT22;16676;51.202;6.774;2023-07-31T04:03:47;20.70;85.80
29775;DHT22;16676;51.202;6.774;2023-07-31T04:07:50;20.70;86.10
29775;DHT22;16676;51.202;6.774;2023-07-31T04:11:52;20.70;85.40
29775;DHT22;16676;51.202;6.774;2023-07-31T04:15:54;20.70;86.00
29775;DHT22;16676;51.202;6.774;2023-07-31T04:19:56;20.70;85.30
29775;DHT22;16676;51.202;6.774;2023-07-31T04:23:59;20.70;86.60
29775;DHT22;16676;51.202;6.774;2023-07-31T04:28:01;20.60;87.30
29775;DHT22;16676;51.202;6.774;2023-07-31T04:32:04;20.60;86.40
29775;DHT22;16676;51.202;6.774;2023-07-31T04:36:06;20.60;87.10
29775;DHT22;16676;51.202;6.774;2023-07-31T04:40:10;20.70;87.30
29775;DHT22;16676;51.202;6.774;2023-07-31T04:44:12;20.60;87.40
29775;DHT22;16676;51.202;6.774;2023-07-31T04:48:14;20.70;88.40
29775;DHT22;16676;51.202;6.774;2023-07-31T04:52:16;20.70;86.70
29775;DHT22;16676;51.202;6.774;2023-07-31T04:56:19;20.70;87.20
29775;DHT22;16676;51.202;6.774;2023-07-31T05:00:21;20.60;88.20
29775;DHT22;16676;51.202;6.774;2023-07-31T05:04:23;20.60;87.60
29775;DHT22;16676;51.202;6.774;2023-07-31T05:08:25;20.60;88.70
29775;DHT22;16676;51.202;6.774;2023-07-31T05:12:28;20.60;89.00
29775;DHT22;16676;51.202;6.774;2023-07-31T05:16:30;20.60;89.30
29775;DHT22;16676;51.202;6.774;2023-07-31T05:20:32;20.60;88.20
29775;DHT22;16676;51.202;6.774;2023-07-31T05:24:34;20.60;89.00
29775;DHT22;16676;51.202;6.774;2023-07-31T05:28:38;20.60;87.80
29775;DHT22;16676;51.202;6.774;2023-07-31T05:32:40;20.60;87.70
29775;DHT22;16676;51.202;6.774;2023-07-31T05:36:42;20.60;87.80
29775;DHT22;16676;51.202;6.774;2023-07-31T05:40:43;20.60;87.40
29775;DHT22;16676;51.202;6.774;2023-07-31T05:44:47;20.70;88.10
29775;DHT22;16676;51.202;6.774;2023-07-31T05:48:49;20.60;87.50
29775;DHT22;16676;51.202;6.774;2023-07-31T05:52:50;20.60;87.60
29775;DHT22;16676;51.202;6.774;2023-07-31T05:56:52;20.60;87.50
29775;DHT22;16676;51.202;6.774;2023-07-31T06:00:56;20.70;87.40
29775;DHT22;16676;51.202;6.774;2023-07-31T06:04:58;20.70;87.50
29775;DHT22;16676;51.202;6.774;2023-07-31T06:09:00;20.70;87.20
29775;DHT22;16676;51.202;6.774;2023-07-31T06:13:02;20.60;87.80
29775;DHT22;16676;51.202;6.774;2023-07-31T06:17:05;20.60;88.40
29775;DHT22;16676;51.202;6.774;2023-07-31T06:21:07;20.70;89.00
29775;DHT22;16676;51.202;6.774;2023-07-31T06:25:09;20.60;89.30
29775;DHT22;16676;51.202;6.774;2023-07-31T06:29:11;20.70;88.70
29775;DHT22;16676;51.202;6.774;2023-07-31T06:33:14;20.80;88.20
29775;DHT22;16676;51.202;6.774;2023-07-31T06:37:16;20.90;87.50
29775;DHT22;16676;51.202;6.774;2023-07-31T06:41:18;21.00;86.60
29775;DHT22;16676;51.202;6.774;2023-07-31T06:45:20;21.00;85.70
29775;DHT22;16676;51.202;6.774;2023-07-31T06:49:23;21.10;86.00
29775;DHT22;16676;51.202;6.774;2023-07-31T06:53:26;21.10;85.50
29775;DHT22;16676;51.202;6.774;2023-07-31T06:57:27;21.20;85.80
29775;DHT22;16676;51.202;6.774;2023-07-31T07:01:29;21.20;86.40
29775;DHT22;16676;51.202;6.774;2023-07-31T07:05:33;21.20;85.40
29775;DHT22;16676;51.202;6.774;2023-07-31T07:09:35;21.30;86.50
29775;DHT22;16676;51.202;6.774;2023-07-31T07:13:37;21.30;84.90
29775;DHT22;16676;51.202;6.774;2023-07-31T07:17:39;21.40;85.10
29775;DHT22;16676;51.202;6.774;2023-07-31T07:21:42;21.40;85.40
29775;DHT22;16676;51.202;6.774;2023-07-31T07:25:45;21.50;83.20
29775;DHT22;16676;51.202;6.774;2023-07-31T07:29:49;21.50;83.60
29775;DHT22;16676;51.202;6.774;2023-07-31T07:33:51;21.50;83.00
29775;DHT22;16676;51.202;6.774;2023-07-31T07:37:54;21.60;83.90
29775;DHT22;16676;51.202;6.774;2023-07-31T07:41:57;21.50;84.30
29775;DHT22;16676;51.202;6.774;2023-07-31T07:45:59;21.60;83.50
29775;DHT22;16676;51.202;6.774;2023-07-31T07:50:01;21.60;85.70
29775;DHT22;16676;51.202;6.774;2023-07-31T07:54:04;21.60;83.50
29775;DHT22;16676;51.202;6.774;2023-07-31T07:58:07;21.70;83.30
29775;DHT22;16676;51.202;6.774;2023-07-31T08:02:09;21.60;85.60
29775;DHT22;16676;51.202;6.774;2023-07-31T08:06:11;21.60;84.60
29775;DHT22;16676;51.202;6.774;2023-07-31T08:10:15;21.70;83.60
29775;DHT22;16676;51.202;6.774;2023-07-31T08:14:17;21.70;83.70
29775;DHT22;16676;51.202;6.774;2023-07-31T08:18:19;21.70;83.50
29775;DHT22;16676;51.202;6.774;2023-07-31T08:22:22;21.80;82.50
29775;DHT22;16676;51.202;6.774;2023-07-31T08:26:25;21.80;84.20
29775;DHT22;16676;51.202;6.774;2023-07-31T08:30:27;21.70;84.10
29775;DHT22;16676;51.202;6.774;2023-07-31T08:34:29;21.80;83.10
29775;DHT22;16676;51.202;6.774;2023-07-31T08:38:31;21.80;83.50
29775;DHT22;16676;51.202;6.774;2023-07-31T08:42:41;21.90;82.90
29775;DHT22;16676;51.202;6.774;2023-07-31T08:46:45;21.90;82.50
29775;DHT22;16676;51.202;6.774;2023-07-31T08:50:48;21.90;83.00
29775;DHT22;16676;51.202;6.774;2023-07-31T08:54:50;21.90;82.20
29775;DHT22;16676;51.202;6.774;2023-07-31T08:58:54;21.90;82.70
29775;DHT22;16676;51.202;6.774;2023-07-31T09:02:59;21.90;84.10
29775;DHT22;16676;51.202;6.774;2023-07-31T09:07:03;21.90;83.40
29775;DHT22;16676;51.202;6.774;2023-07-31T09:11:05;22.00;82.30
29775;DHT22;16676;51.202;6.774;2023-07-31T09:15:09;22.00;82.60
29775;DHT22;16676;51.202;6.774;2023-07-31T09:19:12;22.00;82.90
29775;DHT22;16676;51.202;6.774;2023-07-31T09:23:14;22.00;84.10
29775;DHT22;16676;51.202;6.774;2023-07-31T09:27:17;22.00;82.50
29775;DHT22;16676;51.202;6.774;2023-07-31T09:31:32;22.10;82.90
29775;DHT22;16676;51.202;6.774;2023-07-31T09:35:35;22.10;83.30
29775;DHT22;16676;51.202;6.774;2023-07-31T09:39:46;22.10;84.30
29775;DHT22;16676;51.202;6.774;2023-07-31T09:43:53;22.00;82.30
29775;DHT22;16676;51.202;6.774;2023-07-31T09:47:57;22.10;82.00
29775;DHT22;16676;51.202;6.774;2023-07-31T09:51:59;22.10;84.10
29775;DHT22;16676;51.202;6.774;2023-07-31T09:56:01;22.10;83.40
29775;DHT22;16676;51.202;6.774;2023-07-31T10:00:04;22.10;83.10
29775;DHT22;16676;51.202;6.774;2023-07-31T10:04:11;22.10;84.30
29775;DHT22;16676;51.202;6.774;2023-07-31T10:08:14;22.20;84.10
29775;DHT22;16676;51.202;6.774;2023-07-31T10:12:19;22.20;84.30
29775;DHT22;16676;51.202;6.774;2023-07-31T10:16:22;22.10;83.60
29775;DHT22;16676;51.202;6.774;2023-07-31T10:20:26;22.20;84.40
29775;DHT22;16676;51.202;6.774;2023-07-31T10:24:29;22.20;82.60
29775;DHT22;16676;51.202;6.774;2023-07-31T10:28:32;22.20;85.20
29775;DHT22;16676;51.202;6.774;2023-07-31T10:32:36;22.20;85.00
29775;DHT22;16676;51.202;6.774;2023-07-31T10:36:41;22.30;84.90
29775;DHT22;16676;51.202;6.774;2023-07-31T10:40:42;22.30;84.60
29775;DHT22;16676;51.202;6.774;2023-07-31T10:44:47;22.40;85.70
29775;DHT22;16676;51.202;6.774;2023-07-31T10:48:58;22.40;85.40
29775;DHT22;16676;51.202;6.774;2023-07-31T10:53:01;22.40;85.60
29775;DHT22;16676;51.202;6.774;2023-07-31T10:57:19;22.40;85.70
29775;DHT22;16676;51.202;6.774;2023-07-31T11:01:21;22.40;84.70
29775;DHT22;16676;51.202;6.774;2023-07-31T11:05:44;22.40;85.20
29775;DHT22;16676;51.202;6.774;2023-07-31T11:09:47;22.40;84.40
29775;DHT22;16676;51.202;6.774;2023-07-31T11:13:52;22.40;83.40
29775;DHT22;16676;51.202;6.774;2023-07-31T11:17:54;22.40;84.30
29775;DHT22;16676;51.202;6.774;2023-07-31T11:21:58;22.50;84.50
29775;DHT22;16676;51.202;6.774;2023-07-31T11:26:02;22.50;84.60
29775;DHT22;16676;51.202;6.774;2023-07-31T11:30:05;22.50;84.70
29775;DHT22;16676;51.202;6.774;2023-07-31T11:34:07;22.60;84.40
29775;DHT22;16676;51.202;6.774;2023-07-31T11:38:09;22.60;84.10
29775;DHT22;16676;51.202;6.774;2023-07-31T11:42:15;22.60;84.10
29775;DHT22;16676;51.202;6.774;2023-07-31T11:46:17;22.60;83.60
29775;DHT22;16676;51.202;6.774;2023-07-31T11:50:20;22.50;83.90
29775;DHT22;16676;51.202;6.774;2023-07-31T11:54:22;22.60;84.00
29775;DHT22;16676;51.202;6.774;2023-07-31T11:58:26;22.60;83.60
29775;DHT22;16676;51.202;6.774;2023-07-31T12:02:28;22.60;83.80
29775;DHT22;16676;51.202;6.774;2023-07-31T12:06:34;22.60;83.20
29775;DHT22;16676;51.202;6.774;2023-07-31T12:10:36;22.60;83.60
29775;DHT22;16676;51.202;6.774;2023-07-31T12:14:42;22.60;83.40
29775;DHT22;16676;51.202;6.774;2023-07-31T12:18:44;22.60;83.20
29775;DHT22;16676;51.202;6.774;2023-07-31T12:22:46;22.70;83.20
29775;DHT22;16676;51.202;6.774;2023-07-31T12:26:48;22.70;83.20
29775;DHT22;16676;51.202;6.774;2023-07-31T12:30:52;22.70;83.10
29775;DHT22;16676;51.202;6.774;2023-07-31T12:34:59;22.70;83.20
29775;DHT22;16676;51.202;6.774;2023-07-31T12:39:01;22.70;82.60
29775;DHT22;16676;51.202;6.774;2023-07-31T12:43:03;22.70;82.90
29775;DHT22;16676;51.202;6.774;2023-07-31T12:47:07;22.80;83.70
29775;DHT22;16676;51.202;6.774;2023-07-31T12:51:09;22.80;83.50
29775;DHT22;16676;51.202;6.774;2023-07-31T12:55:11;22.50;83.10
29775;DHT22;16676;51.202;6.774;2023-07-31T12:59:13;22.20;84.70
29775;DHT22;16676;51.202;6.774;2023-07-31T13:03:16;22.00;86.20
29775;DHT22;16676;51.202;6.774;2023-07-31T13:07:18;21.80;86.70
29775;DHT22;16676;51.202;6.774;2023-07-31T13:11:20;21.80;87.40
29775;DHT22;16676;51.202;6.774;2023-07-31T13:15:22;21.60;88.00
29775;DHT22;16676;51.202;6.774;2023-07-31T13:19:25;21.60;88.10
29775;DHT22;16676;51.202;6.774;2023-07-31T13:23:27;21.70;87.20
29775;DHT22;16676;51.202;6.774;2023-07-31T13:27:29;22.10;85.50
29775;DHT22;16676;51.202;6.774;2023-07-31T13:31:31;22.20;83.80
29775;DHT22;16676;51.202;6.774;2023-07-31T13:35:34;22.40;83.70
29775;DHT22;16676;51.202;6.774;2023-07-31T13:39:36;22.40;83.10
29775;DHT22;16676;51.202;6.774;2023-07-31T13:43:38;22.50;82.80
29775;DHT22;16676;51.202;6.774;2023-07-31T13:47:41;22.50;82.00
29775;DHT22;16676;51.202;6.774;2023-07-31T13:51:44;22.50;81.60
29775;DHT22;16676;51.202;6.774;2023-07-31T13:55:46;22.50;80.80
29775;DHT22;16676;51.202;6.774;2023-07-31T13:59:49;22.50;81.00
29775;DHT22;16676;51.202;6.774;2023-07-31T14:03:51;22.50;81.10
29775;DHT22;16676;51.202;6.774;2023-07-31T14:07:55;22.50;81.10
29775;DHT22;16676;51.202;6.774;2023-07-31T14:11:57;22.50;80.60
29775;DHT22;16676;51.202;6.774;2023-07-31T14:15:59;22.50;81.00
29775;DHT22;16676;51.202;6.774;2023-07-31T14:20:01;22.50;80.70
29775;DHT22;16676;51.202;6.774;2023-07-31T14:24:05;22.50;80.50
29775;DHT22;16676;51.202;6.774;2023-07-31T14:28:07;22.50;80.40
29775;DHT22;16676;51.202;6.774;2023-07-31T14:32:09;22.40;80.20
29775;DHT22;16676;51.202;6.774;2023-07-31T14:36:11;22.40;80.00
29775;DHT22;16676;51.202;6.774;2023-07-31T14:40:14;22.50;80.60
29775;DHT22;16676;51.202;6.774;2023-07-31T14:44:16;22.50;80.90
29775;DHT22;16676;51.202;6.774;2023-07-31T14:48:18;22.60;80.80
29775;DHT22;16676;51.202;6.774;2023-07-31T14:52:20;22.70;80.80
29775;DHT22;16676;51.202;6.774;2023-07-31T14:56:23;22.70;80.70
29775;DHT22;16676;51.202;6.774;2023-07-31T15:00:27;22.80;80.70
29775;DHT22;16676;51.202;6.774;2023-07-31T15:04:29;22.80;80.90
29775;DHT22;16676;51.202;6.774;2023-07-31T15:08:31;22.80;81.00
29775;DHT22;16676;51.202;6.774;2023-07-31T15:12:35;22.90;81.50
29775;DHT22;16676;51.202;6.774;2023-07-31T15:16:38;23.00;81.00
29775;DHT22;16676;51.202;6.774;2023-07-31T15:20:40;23.00;81.00
29775;DHT22;16676;51.202;6.774;2023-07-31T15:24:42;23.00;80.90
29775;DHT22;16676;51.202;6.774;2023-07-31T15:28:55;23.00;80.80
29775;DHT22;16676;51.202;6.774;2023-07-31T15:32:57;23.00;80.90
29775;DHT22;16676;51.202;6.774;2023-07-31T15:37:00;23.00;80.90
29775;DHT22;16676;51.202;6.774;2023-07-31T15:41:01;23.00;81.00
29775;DHT22;16676;51.202;6.774;2023-07-31T15:45:06;23.10;81.00
29775;DHT22;16676;51.202;6.774;2023-07-31T15:49:09;23.10;81.00
29775;DHT22;16676;51.202;6.774;2023-07-31T15:53:11;23.10;80.40
29775;DHT22;16676;51.202;6.774;2023-07-31T15:57:13;23.10;79.70
29775;DHT22;16676;51.202;6.774;2023-07-31T16:01:17;23.00;79.50
29775;DHT22;16676;51.202;6.774;2023-07-31T16:05:19;23.00;79.30
29775;DHT22;16676;51.202;6.774;2023-07-31T16:09:21;23.00;79.00
29775;DHT22;16676;51.202;6.774;2023-07-31T16:13:22;23.00;78.90
29775;DHT22;16676;51.202;6.774;2023-07-31T16:17:26;23.00;78.90
29775;DHT22;16676;51.202;6.774;2023-07-31T16:21:28;23.00;78.80
29775;DHT22;16676;51.202;6.774;2023-07-31T16:25:30;22.90;78.80
29775;DHT22;16676;51.202;6.774;2023-07-31T16:29:32;22.90;79.10
29775;DHT22;16676;51.202;6.774;2023-07-31T16:33:35;22.90;78.90
29775;DHT22;16676;51.202;6.774;2023-07-31T16:37:37;22.90;78.50
29775;DHT22;16676;51.202;6.774;2023-07-31T16:41:40;22.90;78.80
29775;DHT22;16676;51.202;6.774;2023-07-31T16:45:42;22.90;78.70
29775;DHT22;16676;51.202;6.774;2023-07-31T16:49:45;22.80;78.80
29775;DHT22;16676;51.202;6.774;2023-07-31T16:53:47;22.90;78.80
29775;DHT22;16676;51.202;6.774;2023-07-31T16:57:50;22.90;79.00
29775;DHT22;16676;51.202;6.774;2023-07-31T17:01:52;22.80;78.80
29775;DHT22;16676;51.202;6.774;2023-07-31T17:05:55;22.80;79.60
29775;DHT22;16676;51.202;6.774;2023-07-31T17:09:57;22.80;78.90
29775;DHT22;16676;51.202;6.774;2023-07-31T17:14:01;22.80;79.20
29775;DHT22;16676;51.202;6.774;2023-07-31T17:18:04;22.80;79.10
29775;DHT22;16676;51.202;6.774;2023-07-31T17:22:07;22.80;78.90
29775;DHT22;16676;51.202;6.774;2023-07-31T17:26:09;22.80;79.20
29775;DHT22;16676;51.202;6.774;2023-07-31T17:30:13;22.80;79.40
29775;DHT22;16676;51.202;6.774;2023-07-31T17:34:15;22.80;79.40
29775;DHT22;16676;51.202;6.774;2023-07-31T17:38:19;22.80;79.50
29775;DHT22;16676;51.202;6.774;2023-07-31T17:42:21;22.80;80.40
29775;DHT22;16676;51.202;6.774;2023-07-31T17:46:23;22.80;79.60
29775;DHT22;16676;51.202;6.774;2023-07-31T17:50:25;22.80;80.00
29775;DHT22;16676;51.202;6.774;2023-07-31T17:54:28;22.70;80.60
29775;DHT22;16676;51.202;6.774;2023-07-31T17:58:30;22.70;86.20
29775;DHT22;16676;51.202;6.774;2023-07-31T18:02:32;22.70;90.50
29775;DHT22;16676;51.202;6.774;2023-07-31T18:06:36;22.80;87.50
29775;DHT22;16676;51.202;6.774;2023-07-31T18:10:44;22.90;84.70
29775;DHT22;16676;51.202;6.774;2023-07-31T18:14:46;22.90;83.80
29775;DHT22;16676;51.202;6.774;2023-07-31T18:18:48;22.90;83.40
29775;DHT22;16676;51.202;6.774;2023-07-31T18:22:50;22.90;82.60
29775;DHT22;16676;51.202;6.774;2023-07-31T18:26:53;22.90;82.70
29775;DHT22;16676;51.202;6.774;2023-07-31T18:30:57;22.90;82.40
29775;DHT22;16676;51.202;6.774;2023-07-31T18:34:59;22.80;82.40
29775;DHT22;16676;51.202;6.774;2023-07-31T18:39:01;22.90;82.50
29775;DHT22;16676;51.202;6.774;2023-07-31T18:43:04;22.80;82.40
29775;DHT22;16676;51.202;6.774;2023-07-31T18:47:06;22.80;82.50
29775;DHT22;16676;51.202;6.774;2023-07-31T18:51:08;22.80;82.00
29775;DHT22;16676;51.202;6.774;2023-07-31T18:55:10;22.80;82.00
29775;DHT22;16676;51.202;6.774;2023-07-31T18:59:13;22.80;82.20
29775;DHT22;16676;51.202;6.774;2023-07-31T19:03:15;22.70;82.00
29775;DHT22;16676;51.202;6.774;2023-07-31T19:07:17;22.70;81.90
29775;DHT22;16676;51.202;6.774;2023-07-31T19:11:19;22.80;82.00
29775;DHT22;16676;51.202;6.774;2023-07-31T19:15:23;22.70;81.80
29775;DHT22;16676;51.202;6.774;2023-07-31T19:19:24;22.70;81.60
29775;DHT22;16676;51.202;6.774;2023-07-31T19:23:26;22.70;81.40
29775;DHT22;16676;51.202;6.774;2023-07-31T19:27:28;22.70;81.30
29775;DHT22;16676;51.202;6.774;2023-07-31T19:31:31;22.70;81.40
29775;DHT22;16676;51.202;6.774;2023-07-31T19:35:33;22.70;81.40
29775;DHT22;16676;51.202;6.774;2023-07-31T19:39:35;22.70;81.80
29775;DHT22;16676;51.202;6.774;2023-07-31T19:43:37;22.70;81.50
29775;DHT22;16676;51.202;6.774;2023-07-31T19:47:40;22.70;81.30
29775;DHT22;16676;51.202;6.774;2023-07-31T19:51:42;22.70;81.70
29775;DHT22;16676;51.202;6.774;2023-07-31T19:55:44;22.70;81.60
29775;DHT22;16676;51.202;6.774;2023-07-31T19:59:46;22.70;82.50
29775;DHT22;16676;51.202;6.774;2023-07-31T20:03:50;22.70;82.90
29775;DHT22;16676;51.202;6.774;2023-07-31T20:07:52;22.70;82.70
29775;DHT22;16676;51.202;6.774;2023-07-31T20:11:54;22.70;82.40
29775;DHT22;16676;51.202;6.774;2023-07-31T20:15:55;22.70;82.30
29775;DHT22;16676;51.202;6.774;2023-07-31T20:19:59;22.70;83.10
29775;DHT22;16676;51.202;6.774;2023-07-31T20:24:01;22.70;82.20
29775;DHT22;16676;51.202;6.774;2023-07-31T20:28:03;22.70;82.80
29775;DHT22;16676;51.202;6.774;2023-07-31T20:32:06;22.70;82.90
29775;DHT22;16676;51.202;6.774;2023-07-31T20:36:10;22.70;82.20
29775;DHT22;16676;51.202;6.774;2023-07-31T20:40:12;22.70;82.30
29775;DHT22;16676;51.202;6.774;2023-07-31T20:44:14;22.70;82.80
29775;DHT22;16676;51.202;6.774;2023-07-31T20:48:16;22.70;82.30
29775;DHT22;16676;51.202;6.774;2023-07-31T20:52:19;22.70;82.80
29775;DHT22;16676;51.202;6.774;2023-07-31T20:56:21;22.70;82.50
29775;DHT22;16676;51.202;6.774;2023-07-31T21:00:23;22.70;82.40
29775;DHT22;16676;51.202;6.774;2023-07-31T21:04:25;22.70;81.90
29775;DHT22;16676;51.202;6.774;2023-07-31T21:08:29;22.70;82.20
29775;DHT22;16676;51.202;6.774;2023-07-31T21:12:31;22.70;82.10
29775;DHT22;16676;51.202;6.774;2023-07-31T21:16:33;22.70;82.30
29775;DHT22;16676;51.202;6.774;2023-07-31T21:20:36;22.70;82.30
29775;DHT22;16676;51.202;6.774;2023-07-31T21:24:39;22.70;82.30
29775;DHT22;16676;51.202;6.774;2023-07-31T21:28:41;22.70;82.60
29775;DHT22;16676;51.202;6.774;2023-07-31T21:32:43;22.70;82.30
29775;DHT22;16676;51.202;6.774;2023-07-31T21:36:45;22.70;82.40
29775;DHT22;16676;51.202;6.774;2023-07-31T21:40:48;22.70;82.00
29775;DHT22;16676;51.202;6.774;2023-07-31T21:44:50;22.70;81.80
29775;DHT22;16676;51.202;6.774;2023-07-31T21:48:52;22.70;82.30
29775;DHT22;16676;51.202;6.774;2023-07-31T21:52:54;22.70;82.70
29775;DHT22;16676;51.202;6.774;2023-07-31T21:56:57;22.70;82.10
29775;DHT22;16676;51.202;6.774;2023-07-31T22:00:59;22.70;81.90
29775;DHT22;16676;51.202;6.774;2023-07-31T22:05:02;22.70;82.50
29775;DHT22;16676;51.202;6.774;2023-07-31T22:09:04;22.60;82.20
29775;DHT22;16676;51.202;6.774;2023-07-31T22:13:08;22.70;82.10
29775;DHT22;16676;51.202;6.774;2023-07-31T22:17:10;22.60;82.00
29775;DHT22;16676;51.202;6.774;2023-07-31T22:21:11;22.70;82.00
29775;DHT22;16676;51.202;6.774;2023-07-31T22:25:15;22.70;81.90
29775;DHT22;16676;51.202;6.774;2023-07-31T22:29:19;22.60;81.80
29775;DHT22;16676;51.202;6.774;2023-07-31T22:33:20;22.60;81.80
29775;DHT22;16676;51.202;6.774;2023-07-31T22:37:22;22.70;82.30
29775;DHT22;16676;51.202;6.774;2023-07-31T22:41:24;22.60;81.90
29775;DHT22;16676;51.202;6.774;2023-07-31T22:45:28;22.60;82.10
29775;DHT22;16676;51.202;6.774;2023-07-31T22:49:30;22.60;82.10
29775;DHT22;16676;51.202;6.774;2023-07-31T22:53:32;22.60;82.10
29775;DHT22;16676;51.202;6.774;2023-07-31T22:57:34;22.60;81.90
29775;DHT22;16676;51.202;6.774;2023-07-31T23:01:37;22.60;81.70
29775;DHT22;16676;51.202;6.774;2023-07-31T23:05:39;22.60;82.00
29775;DHT22;16676;51.202;6.774;2023-07-31T23:09:41;22.60;81.60
29775;DHT22;16676;51.202;6.774;2023-07-31T23:13:43;22.60;82.10
29775;DHT22;16676;51.202;6.774;2023-07-31T23:17:46;22.70;81.80
29775;DHT22;16676;51.202;6.774;2023-07-31T23:21:48;22.70;82.00
29775;DHT22;16676;51.202;6.774;2023-07-31T23:25:51;22.60;82.30
29775;DHT22;16676;51.202;6.774;2023-07-31T23:29:53;22.60;82.00
29775;DHT22;16676;51.202;6.774;2023-07-31T23:33:56;22.60;82.10
29775;DHT22;16676;51.202;6.774;2023-07-31T23:37:58;22.60;81.80
29775;DHT22;16676;51.202;6.774;2023-07-31T23:42:00;22.60;82.00
29775;DHT22;16676;51.202;6.774;2023-07-31T23:46:02;22.60;81.80
29775;DHT22;16676;51.202;6.774;2023-07-31T23:50:07;22.60;81.80
29775;DHT22;16676;51.202;6.774;2023-07-31T23:54:10;22.60;82.20
29775;DHT22;16676;51.202;6.774;2023-07-31T23:58:13;22.60;82.20
